createdAt,value
2019-01-15T00:01:36.535Z,95.20
2019-01-15T00:04:08.144Z,87.40
2019-01-15T00:06:39.222Z,91.80
2019-01-15T00:09:11.037Z,95.20
2019-01-15T00:11:42.912Z,93.80
2019-01-15T00:14:14.489Z,87.00
2019-01-15T00:16:45.878Z,92.60
2019-01-15T00:19:17.143Z,90.00
2019-01-15T00:21:48.800Z,91.20
2019-01-15T00:24:20.965Z,92.80
2019-01-15T00:26:53.437Z,91.60
2019-01-15T00:29:24.593Z,89.80
2019-01-15T00:31:56.042Z,96.60
2019-01-15T00:34:27.474Z,89.60
2019-01-15T00:36:59.035Z,95.60
2019-01-15T00:39:31.083Z,95.80
2019-01-15T00:42:02.372Z,92.20
2019-01-15T00:44:33.778Z,97.60
2019-01-15T00:47:05.137Z,94.40
2019-01-15T00:49:36.436Z,99.60
2019-01-15T00:52:07.828Z,102.00
2019-01-15T00:54:39.911Z,105.40
2019-01-15T00:57:11.404Z,102.00
2019-01-15T00:59:42.660Z,101.20
2019-01-15T01:02:14.197Z,108.00
2019-01-15T01:04:45.447Z,101.40
2019-01-15T01:07:16.866Z,98.20
2019-01-15T01:09:48.390Z,96.20
2019-01-15T01:12:22.279Z,97.40
2019-01-15T01:14:52.562Z,107.80
2019-01-15T01:17:24.041Z,105.40
2019-01-15T01:19:55.480Z,106.40
2019-01-15T01:22:26.829Z,108.00
2019-01-15T01:24:58.233Z,111.80
2019-01-15T01:27:29.525Z,113.20
2019-01-15T01:30:00.878Z,109.40
2019-01-15T01:32:32.097Z,109.60
2019-01-15T01:35:03.559Z,115.40
2019-01-15T01:37:34.908Z,119.40
2019-01-15T01:40:11.321Z,117.80
2019-01-15T01:42:42.682Z,128.60
2019-01-15T01:45:14.678Z,117.00
2019-01-15T01:47:46.057Z,133.00
2019-01-15T01:50:17.716Z,151.00
2019-01-15T01:52:49.582Z,139.80
2019-01-15T01:55:20.831Z,123.00
2019-01-15T01:57:53.442Z,139.40
2019-01-15T02:00:25.103Z,130.60
2019-01-15T02:02:56.254Z,143.20
2019-01-15T02:05:28.050Z,141.40
2019-01-15T02:07:59.667Z,149.60
2019-01-15T02:10:31.453Z,156.80
2019-01-15T02:13:02.574Z,171.25
2019-01-15T02:15:34.159Z,165.50
2019-01-15T02:18:05.489Z,108.60
2019-01-15T02:20:37.434Z,135.80
2019-01-15T02:23:09.140Z,145.20
2019-01-15T02:25:40.816Z,151.40
2019-01-15T02:28:11.704Z,159.20
2019-01-15T02:30:42.953Z,162.60
2019-01-15T02:33:14.202Z,174.25
2019-01-15T02:35:45.639Z,192.00
2019-01-15T02:38:17.443Z,187.25
2019-01-15T02:40:48.800Z,181.50
2019-01-15T02:43:20.143Z,171.00
2019-01-15T02:45:52.037Z,169.80
2019-01-15T02:48:23.770Z,158.20
2019-01-15T02:50:55.176Z,162.20
2019-01-15T02:53:26.750Z,170.40
2019-01-15T02:55:58.477Z,157.80
2019-01-15T02:58:30.675Z,159.80
2019-01-15T03:01:02.002Z,149.40
2019-01-15T03:03:33.442Z,139.60
2019-01-15T03:06:05.526Z,131.20
2019-01-15T03:08:37.035Z,142.00
2019-01-15T03:11:08.781Z,132.40
2019-01-15T03:13:40.372Z,138.40
2019-01-15T03:16:11.793Z,150.20
2019-01-15T03:18:43.470Z,127.40
2019-01-15T03:21:14.866Z,127.00
2019-01-15T03:23:46.166Z,141.00
2019-01-15T03:26:17.963Z,134.00
2019-01-15T03:28:49.700Z,133.40
2019-01-15T03:31:21.013Z,136.80
2019-01-15T03:33:52.505Z,125.20
2019-01-15T03:36:23.794Z,134.20
2019-01-15T03:38:55.079Z,120.40
2019-01-15T03:41:26.199Z,134.00
2019-01-15T03:43:58.054Z,125.60
2019-01-15T03:46:29.648Z,132.60
2019-01-15T03:49:01.054Z,136.40
2019-01-15T03:51:33.476Z,144.60
2019-01-15T03:54:05.242Z,136.40
2019-01-15T03:56:36.954Z,141.40
2019-01-15T03:59:08.309Z,122.00
2019-01-15T04:01:39.711Z,128.20
2019-01-15T04:04:11.139Z,142.60
2019-01-15T04:06:43.175Z,154.40
2019-01-15T04:09:15.856Z,136.60
2019-01-15T04:11:47.137Z,133.40
2019-01-15T04:14:18.506Z,130.20
2019-01-15T04:16:49.802Z,126.40
2019-01-15T04:19:21.031Z,134.40
2019-01-15T04:21:52.377Z,136.80
2019-01-15T04:24:23.583Z,138.60
2019-01-15T04:26:56.263Z,139.40
2019-01-15T04:29:27.822Z,112.80
2019-01-15T04:31:59.215Z,127.20
2019-01-15T04:34:30.616Z,148.00
2019-01-15T04:37:01.958Z,121.60
2019-01-15T04:39:33.982Z,122.60
2019-01-15T04:42:05.675Z,124.60
2019-01-15T04:44:36.802Z,122.80
2019-01-15T04:47:07.948Z,127.20
2019-01-15T04:49:39.433Z,130.00
2019-01-15T04:52:10.945Z,123.20
2019-01-15T04:54:42.481Z,123.80
2019-01-15T04:57:14.136Z,125.00
2019-01-15T04:59:45.831Z,122.20
2019-01-15T05:02:17.221Z,119.20
2019-01-15T05:04:48.725Z,117.40
2019-01-15T05:07:20.276Z,115.60
2019-01-15T05:09:52.034Z,111.60
2019-01-15T05:12:24.184Z,122.40
2019-01-15T05:14:55.771Z,112.60
2019-01-15T05:17:27.314Z,111.40
2019-01-15T05:19:58.788Z,123.40
2019-01-15T05:22:30.158Z,109.40
2019-01-15T05:25:02.212Z,116.00
2019-01-15T05:27:33.494Z,116.60
2019-01-15T05:30:05.586Z,118.00
2019-01-15T05:32:37.513Z,106.40
2019-01-15T05:35:09.445Z,101.60
2019-01-15T05:37:41.119Z,109.20
2019-01-15T05:40:12.918Z,113.80
2019-01-15T05:42:45.083Z,105.80
2019-01-15T05:45:23.526Z,113.60
2019-01-15T05:47:55.624Z,107.80
2019-01-15T05:50:37.609Z,111.80
2019-01-15T05:53:08.943Z,111.80
2019-01-15T05:55:40.582Z,109.80
2019-01-15T05:58:12.255Z,110.20
2019-01-15T06:00:43.633Z,109.20
2019-01-15T06:03:15.483Z,115.00
2019-01-15T06:05:47.321Z,114.00
2019-01-15T06:08:18.782Z,114.20
2019-01-15T06:10:50.458Z,110.60
2019-01-15T06:13:21.935Z,112.80
2019-01-15T06:15:53.533Z,115.40
2019-01-15T06:18:24.990Z,120.80
2019-01-15T06:20:56.697Z,114.60
2019-01-15T06:23:28.274Z,115.00
2019-01-15T06:25:59.463Z,115.00
2019-01-15T06:28:31.252Z,123.80
2019-01-15T06:31:02.562Z,117.20
2019-01-15T06:33:34.330Z,115.00
2019-01-15T06:36:05.681Z,122.00
2019-01-15T06:38:37.181Z,126.40
2019-01-15T06:41:08.812Z,132.20
2019-01-15T06:43:41.836Z,124.00
2019-01-15T06:46:13.396Z,111.60
2019-01-15T06:48:44.949Z,135.20
2019-01-15T06:51:16.623Z,121.80
2019-01-15T06:53:47.931Z,118.40
2019-01-15T06:56:19.291Z,123.60
2019-01-15T06:58:53.713Z,123.00
2019-01-15T07:01:25.817Z,110.20
2019-01-15T07:03:57.554Z,120.60
2019-01-15T07:06:29.206Z,110.80
2019-01-15T07:09:00.810Z,109.60
2019-01-15T07:11:34.026Z,110.80
2019-01-15T07:14:05.946Z,110.60
2019-01-15T07:16:38.559Z,104.60
2019-01-15T07:19:10.004Z,111.80
2019-01-15T07:21:41.257Z,106.60
2019-01-15T07:24:13.417Z,119.00
2019-01-15T07:26:44.720Z,116.00
2019-01-15T07:29:16.119Z,117.40
2019-01-15T07:31:47.664Z,121.60
2019-01-15T07:34:19.532Z,110.80
2019-01-15T07:36:50.741Z,111.80
2019-01-15T07:39:23.216Z,112.60
2019-01-15T07:41:54.886Z,108.40
2019-01-15T07:44:26.261Z,110.60
2019-01-15T07:46:58.101Z,112.60
2019-01-15T07:49:29.623Z,111.80
2019-01-15T07:52:01.037Z,107.00
2019-01-15T07:54:32.516Z,104.20
2019-01-15T07:57:03.892Z,102.00
2019-01-15T07:59:35.544Z,108.80
2019-01-15T08:02:08.225Z,109.20
2019-01-15T08:04:39.905Z,105.40
2019-01-15T08:07:11.338Z,98.60
2019-01-15T08:09:42.897Z,105.60
2019-01-15T08:12:14.704Z,97.60
2019-01-15T08:14:46.224Z,100.40
2019-01-15T08:17:17.651Z,102.20
2019-01-15T08:19:48.752Z,94.60
2019-01-15T08:22:20.778Z,99.20
2019-01-15T08:24:52.536Z,97.00
2019-01-15T08:27:24.392Z,95.40
2019-01-15T08:29:55.599Z,101.80
2019-01-15T08:32:27.995Z,97.00
2019-01-15T08:34:59.336Z,95.00
2019-01-15T08:37:30.956Z,99.40
2019-01-15T08:40:02.441Z,97.00
2019-01-15T08:42:33.770Z,94.40
2019-01-15T08:45:06.225Z,97.40
2019-01-15T08:47:41.092Z,96.00
2019-01-15T08:50:13.018Z,88.20
2019-01-15T08:52:44.841Z,91.00
2019-01-15T08:55:16.203Z,87.40
2019-01-15T08:57:47.937Z,80.80
2019-01-15T09:00:19.534Z,75.40
2019-01-15T09:02:52.038Z,83.20
2019-01-15T09:05:23.659Z,86.60
2019-01-15T09:07:55.797Z,87.40
2019-01-15T09:10:27.245Z,80.80
2019-01-15T09:12:58.578Z,86.80
2019-01-15T09:15:30.538Z,81.20
2019-01-15T09:18:02.420Z,83.60
2019-01-15T09:20:33.932Z,82.60
2019-01-15T09:23:05.573Z,90.80
2019-01-15T09:25:37.977Z,89.80
2019-01-15T09:28:13.076Z,86.80
2019-01-15T09:30:46.696Z,82.00
2019-01-15T09:33:20.313Z,93.00
2019-01-15T09:35:53.537Z,93.80
2019-01-15T09:38:26.025Z,87.00
2019-01-15T09:41:00.091Z,93.60
2019-01-15T09:43:32.560Z,85.80
2019-01-15T09:46:04.291Z,85.80
2019-01-15T09:48:38.045Z,88.60
2019-01-15T09:51:09.807Z,90.40
2019-01-15T09:53:43.219Z,86.00
2019-01-15T09:56:15.171Z,89.80
2019-01-15T09:58:48.123Z,96.40
2019-01-15T10:01:20.497Z,92.60
2019-01-15T10:03:52.388Z,88.00
2019-01-15T10:06:27.216Z,86.40
2019-01-15T10:08:58.867Z,83.60
2019-01-15T10:11:30.616Z,83.20
2019-01-15T10:14:02.457Z,82.80
2019-01-15T10:16:33.930Z,85.20
2019-01-15T10:19:05.587Z,89.40
2019-01-15T10:21:37.210Z,86.60
2019-01-15T10:24:09.157Z,88.20
2019-01-15T10:26:40.606Z,75.60
2019-01-15T10:29:13.139Z,88.00
2019-01-15T10:32:26.857Z,88.20
2019-01-15T10:34:59.584Z,85.00
2019-01-15T10:37:31.191Z,82.20
2019-01-15T10:40:02.768Z,86.20
2019-01-15T10:42:34.533Z,83.40
2019-01-15T10:45:07.006Z,89.60
2019-01-15T10:47:39.357Z,84.00
2019-01-15T10:50:11.358Z,79.20
2019-01-15T10:52:43.197Z,82.40
2019-01-15T10:55:14.816Z,79.80
2019-01-15T10:57:46.402Z,86.80
2019-01-15T11:00:17.977Z,82.20
2019-01-15T11:02:49.411Z,80.20
2019-01-15T11:05:20.771Z,83.80
2019-01-15T11:07:52.338Z,87.00
2019-01-15T11:10:23.847Z,77.60
2019-01-15T11:12:55.184Z,83.40
2019-01-15T11:15:26.897Z,80.40
2019-01-15T11:17:58.960Z,76.40
2019-01-15T11:20:30.838Z,80.40
2019-01-15T11:23:02.301Z,90.80
2019-01-15T11:25:33.849Z,87.20
2019-01-15T11:28:06.957Z,91.80
2019-01-15T11:30:38.667Z,93.60
2019-01-15T11:33:10.532Z,88.40
2019-01-15T11:35:41.913Z,87.80
2019-01-15T11:38:13.551Z,93.00
2019-01-15T11:40:44.775Z,93.60
2019-01-15T11:43:17.857Z,98.00
2019-01-15T11:45:49.240Z,97.00
2019-01-15T11:48:21.611Z,96.60
2019-01-15T11:50:52.795Z,98.00
2019-01-15T11:53:24.268Z,96.00
2019-01-15T11:55:55.472Z,98.00
2019-01-15T11:58:27.039Z,98.00
2019-01-15T12:01:16.246Z,98.20
2019-01-15T12:04:16.253Z,94.80
2019-01-15T12:07:05.617Z,98.00
2019-01-15T12:09:54.890Z,95.40
2019-01-15T12:12:43.656Z,95.60
2019-01-15T12:15:28.010Z,95.20
2019-01-15T12:18:16.952Z,102.20
2019-01-15T12:21:19.134Z,104.80
2019-01-15T12:24:09.450Z,105.60
2019-01-15T12:27:04.561Z,107.20
2019-01-15T12:29:53.576Z,108.00
2019-01-15T12:32:44.589Z,125.80
2019-01-15T12:35:32.156Z,124.60
2019-01-15T12:38:25.586Z,151.80
2019-01-15T12:41:12.536Z,139.40
2019-01-15T12:44:21.624Z,142.80
2019-01-15T12:47:12.420Z,135.00
2019-01-15T12:50:01.699Z,138.80
2019-01-15T12:52:51.680Z,150.80
2019-01-15T12:55:40.841Z,151.00
2019-01-15T12:58:35.847Z,159.40
2019-01-15T13:01:29.311Z,174.40
2019-01-15T13:04:18.264Z,182.80
2019-01-15T13:07:19.853Z,188.80
2019-01-15T13:10:01.620Z,196.25
2019-01-15T13:13:02.043Z,215.25
2019-01-15T13:15:51.681Z,225.25
2019-01-15T13:18:44.717Z,248.00
2019-01-15T13:21:35.265Z,245.00
2019-01-15T13:24:40.822Z,246.75
2019-01-15T13:27:29.977Z,233.75
2019-01-15T13:30:25.956Z,222.00
2019-01-15T13:33:16.603Z,231.75
2019-01-15T13:36:04.958Z,246.00
2019-01-15T13:38:50.635Z,248.75
2019-01-15T13:41:49.663Z,236.25
2019-01-15T13:44:49.242Z,260.75
2019-01-15T13:47:39.739Z,263.25
2019-01-15T13:50:24.495Z,259.00
2019-01-15T13:53:30.351Z,276.50
2019-01-15T13:56:20.860Z,283.50
2019-01-15T13:59:23.092Z,290.50
2019-01-15T14:02:05.408Z,338.50
2019-01-15T14:05:10.643Z,351.50
2019-01-15T14:08:19.817Z,351.50
2019-01-15T14:11:25.319Z,365.25
2019-01-15T14:14:15.946Z,435.80
2019-01-15T14:17:03.160Z,496.40
2019-01-15T14:19:56.738Z,493.00
2019-01-15T14:22:49.891Z,477.40
2019-01-15T14:25:55.267Z,431.60
2019-01-15T14:28:52.086Z,435.75
2019-01-15T14:31:40.736Z,447.00
2019-01-15T14:34:30.220Z,396.25
2019-01-15T14:37:27.870Z,453.25
2019-01-15T14:40:30.775Z,437.50
2019-01-15T14:43:24.455Z,416.50
2019-01-15T14:46:20.604Z,417.50
2019-01-15T14:49:02.391Z,392.50
2019-01-15T14:52:10.801Z,402.75
2019-01-15T14:55:07.585Z,382.75
2019-01-15T14:57:56.685Z,501.60
2019-01-15T15:00:49.936Z,460.00
2019-01-15T15:03:32.786Z,441.00
2019-01-15T15:06:17.300Z,422.50
2019-01-15T15:09:06.580Z,389.75
2019-01-15T15:12:00.658Z,408.00
2019-01-15T15:14:45.141Z,383.50
2019-01-15T15:17:38.274Z,403.50
2019-01-15T15:20:32.112Z,352.25
2019-01-15T15:23:22.448Z,406.00
2019-01-15T15:26:24.204Z,386.75
2019-01-15T15:29:17.477Z,377.75
2019-01-15T15:32:06.024Z,428.00
2019-01-15T15:34:59.097Z,421.75
2019-01-15T15:37:50.184Z,434.50
2019-01-15T15:40:41.258Z,425.25
2019-01-15T15:43:34.743Z,478.00
2019-01-15T15:46:19.572Z,485.00
2019-01-15T15:49:13.199Z,488.40
2019-01-15T15:52:09.519Z,506.20
2019-01-15T15:55:14.868Z,499.00
2019-01-15T15:58:12.172Z,544.00
2019-01-15T16:01:01.025Z,521.50
2019-01-15T16:03:44.709Z,537.25
2019-01-15T16:06:49.379Z,567.00
2019-01-15T16:09:41.363Z,585.40
2019-01-15T16:12:31.886Z,635.80
2019-01-15T16:15:26.456Z,583.80
2019-01-15T16:18:15.748Z,600.40
2019-01-15T16:21:14.651Z,580.40
2019-01-15T16:24:19.714Z,645.00
2019-01-15T16:27:19.581Z,630.40
2019-01-15T16:30:11.707Z,645.60
2019-01-15T16:33:05.289Z,597.20
2019-01-15T16:36:07.475Z,649.80
2019-01-15T16:39:01.012Z,682.00
2019-01-15T16:41:51.809Z,684.20
2019-01-15T16:45:00.432Z,708.00
2019-01-15T16:47:57.680Z,624.80
2019-01-15T16:50:53.696Z,649.80
2019-01-15T16:53:41.251Z,673.60
2019-01-15T16:56:30.396Z,684.00
2019-01-15T16:59:20.839Z,657.20
2019-01-15T17:02:09.764Z,609.00
2019-01-15T17:05:15.605Z,560.60
2019-01-15T17:08:04.747Z,624.00
2019-01-15T17:10:55.284Z,628.60
2019-01-15T17:13:52.348Z,665.40
2019-01-15T17:16:51.957Z,589.40
2019-01-15T17:19:52.567Z,608.20
2019-01-15T17:22:42.994Z,629.00
2019-01-15T17:25:34.596Z,641.80
2019-01-15T17:28:23.765Z,644.80
2019-01-15T17:31:09.499Z,644.40
2019-01-15T17:33:58.810Z,594.40
2019-01-15T17:36:54.510Z,638.20
2019-01-15T17:39:43.691Z,656.80
2019-01-15T17:42:33.061Z,647.00
2019-01-15T17:45:32.877Z,700.40
2019-01-15T17:48:23.369Z,651.80
2019-01-15T17:51:26.185Z,624.80
2019-01-15T17:54:20.143Z,640.40
2019-01-15T17:57:26.702Z,640.80
2019-01-15T18:00:15.351Z,633.00
2019-01-15T18:03:06.612Z,634.80
2019-01-15T18:06:00.994Z,657.40
2019-01-15T18:08:53.596Z,635.40
2019-01-15T18:11:52.899Z,607.20
2019-01-15T18:14:52.738Z,653.60
2019-01-15T18:17:40.678Z,651.00
2019-01-15T18:20:41.087Z,659.40
2019-01-15T18:23:40.003Z,617.20
2019-01-15T18:26:28.623Z,600.20
2019-01-15T18:29:22.191Z,631.20
2019-01-15T18:32:06.858Z,625.40
2019-01-15T18:34:58.401Z,593.40
2019-01-15T18:37:36.895Z,686.60
2019-01-15T18:40:42.986Z,613.40
2019-01-15T18:43:32.423Z,652.00
2019-01-15T18:46:16.235Z,662.40
2019-01-15T18:49:12.716Z,646.40
2019-01-15T18:52:03.510Z,634.00
2019-01-15T18:54:57.484Z,656.40
2019-01-15T18:57:53.822Z,645.80
2019-01-15T19:00:53.138Z,634.80
2019-01-15T19:03:52.630Z,626.20
2019-01-15T19:06:41.089Z,635.50
2019-01-15T19:09:32.116Z,586.80
2019-01-15T19:12:25.346Z,582.20
2019-01-15T19:15:22.194Z,577.00
2019-01-15T19:18:11.043Z,600.60
2019-01-15T19:21:02.166Z,536.00
2019-01-15T19:23:50.911Z,534.60
2019-01-15T19:26:40.280Z,565.20
2019-01-15T19:29:39.489Z,560.00
2019-01-15T19:32:30.332Z,554.00
2019-01-15T19:35:23.483Z,583.20
2019-01-15T19:38:14.028Z,558.80
2019-01-15T19:41:16.535Z,579.80
2019-01-15T19:44:13.370Z,566.80
2019-01-15T19:47:10.466Z,569.20
2019-01-15T19:49:54.886Z,587.00
2019-01-15T19:52:43.234Z,564.60
2019-01-15T19:55:32.288Z,544.80
2019-01-15T19:58:32.300Z,551.80
2019-01-15T20:01:22.764Z,544.00
2019-01-15T20:04:19.017Z,550.60
2019-01-15T20:07:18.631Z,552.40
2019-01-15T20:10:09.030Z,579.60
2019-01-15T20:13:11.708Z,550.50
2019-01-15T20:16:01.287Z,577.60
2019-01-15T20:18:54.459Z,579.20
2019-01-15T20:21:43.805Z,584.00
2019-01-15T20:24:34.776Z,584.00
2019-01-15T20:27:28.494Z,513.20
2019-01-15T20:30:24.937Z,518.75
2019-01-15T20:33:17.980Z,490.25
2019-01-15T20:36:06.843Z,485.25
2019-01-15T20:38:52.719Z,555.75
2019-01-15T20:41:54.591Z,519.00
2019-01-15T20:44:51.019Z,558.75
2019-01-15T20:47:44.493Z,530.00
2019-01-15T20:50:33.544Z,530.50
2019-01-15T20:53:15.168Z,518.25
2019-01-15T20:55:59.896Z,538.50
2019-01-15T20:58:49.068Z,504.00
2019-01-15T21:01:33.251Z,473.00
2019-01-15T21:04:29.640Z,489.50
2019-01-15T21:07:18.511Z,481.25
2019-01-15T21:10:01.116Z,492.75
2019-01-15T21:12:50.492Z,498.50
2019-01-15T21:15:40.886Z,474.50
2019-01-15T21:18:34.345Z,480.50
2019-01-15T21:21:23.120Z,453.75
2019-01-15T21:24:28.537Z,496.00
2019-01-15T21:27:22.758Z,440.75
2019-01-15T21:30:13.842Z,428.75
2019-01-15T21:33:07.233Z,412.00
2019-01-15T21:35:56.069Z,443.00
2019-01-15T21:38:55.269Z,418.25
2019-01-15T21:41:36.532Z,417.75
2019-01-15T21:44:25.328Z,444.00
2019-01-15T21:47:25.527Z,447.00
2019-01-15T21:50:24.414Z,440.50
2019-01-15T21:53:33.029Z,436.50
2019-01-15T21:56:36.127Z,446.50
2019-01-15T21:59:32.250Z,418.00
2019-01-15T22:02:19.818Z,426.75
2019-01-15T22:05:16.323Z,420.00
2019-01-15T22:08:09.906Z,440.75
2019-01-15T22:11:06.034Z,434.25
2019-01-15T22:14:02.555Z,407.50
2019-01-15T22:17:02.068Z,414.25
2019-01-15T22:19:58.061Z,438.50
2019-01-15T22:22:48.888Z,430.00
2019-01-15T22:25:38.152Z,398.00
2019-01-15T22:28:27.657Z,417.75
2019-01-15T22:31:17.204Z,406.50
2019-01-15T22:34:00.459Z,419.00
2019-01-15T22:37:06.096Z,402.25
2019-01-15T22:39:59.241Z,396.50
2019-01-15T22:42:52.705Z,403.00
2019-01-15T22:45:44.432Z,380.75
2019-01-15T22:48:37.814Z,374.00
2019-01-15T22:51:43.848Z,376.25
2019-01-15T22:54:44.199Z,369.75
2019-01-15T22:57:27.880Z,379.25
2019-01-15T23:00:21.245Z,364.50
2019-01-15T23:03:11.058Z,357.75
2019-01-15T23:06:01.763Z,364.75
2019-01-15T23:08:52.185Z,378.25
2019-01-15T23:11:37.596Z,372.00
2019-01-15T23:14:26.191Z,340.50
2019-01-15T23:17:19.754Z,358.75
2019-01-15T23:20:10.039Z,365.50
2019-01-15T23:22:56.447Z,373.75
2019-01-15T23:25:44.985Z,353.50
2019-01-15T23:28:30.466Z,363.00
2019-01-15T23:31:15.449Z,324.25
2019-01-15T23:34:14.640Z,331.25
2019-01-15T23:37:05.955Z,367.50
2019-01-15T23:40:11.607Z,350.50
2019-01-15T23:42:53.617Z,356.75
2019-01-15T23:45:55.465Z,370.25
2019-01-15T23:48:40.890Z,327.75
2019-01-15T23:51:34.205Z,352.00
2019-01-15T23:54:36.368Z,357.00
2019-01-15T23:57:36.793Z,351.75
